aviador You're here:

YLIS Decoded Metar

in
Report Time2018-04-22 14:00:00
UTC Time2018-04-22 14:20:57
Flight Rules vfr VFR
Wind350° at 02 kt
W.Decomp.*RWY 33: 1.9 kt HW 0.7 kt RCW
W.Rank350° ranks 2
Current wind is below 350° avg. (5.8)
Visibility9999 m
Phenomena:N/A
Clouds:Scattered 032 Hf
Broken 105 Hf
Expected CloudBase > 400 ft AGL from Temp-Dew spread
Ceiling10,500 ft
Temp16°C
Dew Point15°C (94% RH)
QNH1018 hPa
Raw Report
METAR YLIS 221400Z AUTO 35002KT 9999 // SCT032 BKN105 16/15 Q1018=

Extra information for YLIS:More info

Social comments